sensor_id;sensor_type;location;lat;lon;timestamp;P1;durP1;ratioP1;P2;durP2;ratioP2
56343;SDS011;42245;42.058;24.700;2022-08-11T00:01:45;7.05;;;5.50;;
56343;SDS011;42245;42.058;24.700;2022-08-11T00:04:13;7.75;;;5.50;;
56343;SDS011;42245;42.058;24.700;2022-08-11T00:06:40;6.03;;;5.07;;
56343;SDS011;42245;42.058;24.700;2022-08-11T00:09:07;6.13;;;5.53;;
56343;SDS011;42245;42.058;24.700;2022-08-11T00:11:37;7.97;;;5.45;;
56343;SDS011;42245;42.058;24.700;2022-08-11T00:14:12;6.13;;;5.53;;
56343;SDS011;42245;42.058;24.700;2022-08-11T00:16:39;6.15;;;5.57;;
56343;SDS011;42245;42.058;24.700;2022-08-11T00:19:06;6.55;;;5.85;;
56343;SDS011;42245;42.058;24.700;2022-08-11T00:21:32;6.07;;;5.35;;
56343;SDS011;42245;42.058;24.700;2022-08-11T00:24:05;6.32;;;5.47;;
56343;SDS011;42245;42.058;24.700;2022-08-11T00:26:30;8.10;;;6.07;;
56343;SDS011;42245;42.058;24.700;2022-08-11T00:29:00;6.85;;;5.40;;
56343;SDS011;42245;42.058;24.700;2022-08-11T00:31:33;8.13;;;5.82;;
56343;SDS011;42245;42.058;24.700;2022-08-11T00:34:00;6.93;;;5.70;;
56343;SDS011;42245;42.058;24.700;2022-08-11T00:36:27;7.88;;;5.93;;
56343;SDS011;42245;42.058;24.700;2022-08-11T00:38:54;7.95;;;5.85;;
56343;SDS011;42245;42.058;24.700;2022-08-11T00:41:33;6.88;;;5.80;;
56343;SDS011;42245;42.058;24.700;2022-08-11T00:46:54;6.85;;;5.90;;
56343;SDS011;42245;42.058;24.700;2022-08-11T01:39:06;13.52;;;6.30;;
56343;SDS011;42245;42.058;24.700;2022-08-11T01:47:25;9.63;;;6.15;;
56343;SDS011;42245;42.058;24.700;2022-08-11T01:50:23;7.85;;;6.05;;
56343;SDS011;42245;42.058;24.700;2022-08-11T01:53:08;7.40;;;5.88;;
56343;SDS011;42245;42.058;24.700;2022-08-11T01:55:48;7.13;;;6.10;;
56343;SDS011;42245;42.058;24.700;2022-08-11T01:58:28;8.00;;;6.00;;
56343;SDS011;42245;42.058;24.700;2022-08-11T02:01:05;7.20;;;6.43;;
56343;SDS011;42245;42.058;24.700;2022-08-11T02:06:49;8.10;;;6.55;;
56343;SDS011;42245;42.058;24.700;2022-08-11T02:20:56;7.03;;;6.32;;
56343;SDS011;42245;42.058;24.700;2022-08-11T02:23:58;7.55;;;6.57;;
56343;SDS011;42245;42.058;24.700;2022-08-11T02:26:47;7.43;;;6.72;;
56343;SDS011;42245;42.058;24.700;2022-08-11T02:42:32;8.80;;;6.90;;
56343;SDS011;42245;42.058;24.700;2022-08-11T02:51:24;7.65;;;6.60;;
56343;SDS011;42245;42.058;24.700;2022-08-11T03:10:07;8.38;;;6.45;;
56343;SDS011;42245;42.058;24.700;2022-08-11T03:12:49;7.57;;;6.78;;
56343;SDS011;42245;42.058;24.700;2022-08-11T03:18:52;8.50;;;7.07;;
56343;SDS011;42245;42.058;24.700;2022-08-11T03:21:31;8.75;;;6.60;;
56343;SDS011;42245;42.058;24.700;2022-08-11T03:24:09;6.97;;;6.20;;
56343;SDS011;42245;42.058;24.700;2022-08-11T03:31:57;7.03;;;6.32;;
56343;SDS011;42245;42.058;24.700;2022-08-11T03:34:32;8.18;;;6.63;;
56343;SDS011;42245;42.058;24.700;2022-08-11T04:08:04;9.05;;;6.07;;
56343;SDS011;42245;42.058;24.700;2022-08-11T04:24:57;9.40;;;6.10;;
56343;SDS011;42245;42.058;24.700;2022-08-11T04:27:51;7.00;;;6.30;;
56343;SDS011;42245;42.058;24.700;2022-08-11T04:30:29;7.57;;;6.35;;
56343;SDS011;42245;42.058;24.700;2022-08-11T04:41:19;7.97;;;6.10;;
56343;SDS011;42245;42.058;24.700;2022-08-11T04:49:44;7.90;;;6.43;;
56343;SDS011;42245;42.058;24.700;2022-08-11T04:56:23;8.30;;;5.85;;
56343;SDS011;42245;42.058;24.700;2022-08-11T05:04:49;6.65;;;5.95;;
56343;SDS011;42245;42.058;24.700;2022-08-11T05:13:05;6.70;;;6.10;;
56343;SDS011;42245;42.058;24.700;2022-08-11T05:16:01;8.98;;;5.88;;
56343;SDS011;42245;42.058;24.700;2022-08-11T05:18:53;7.10;;;6.10;;
56343;SDS011;42245;42.058;24.700;2022-08-11T05:21:39;15.20;;;6.20;;
56343;SDS011;42245;42.058;24.700;2022-08-11T05:27:35;9.45;;;6.18;;
56343;SDS011;42245;42.058;24.700;2022-08-11T05:30:44;14.63;;;6.20;;
56343;SDS011;42245;42.058;24.700;2022-08-11T05:33:31;8.07;;;6.18;;
56343;SDS011;42245;42.058;24.700;2022-08-11T05:36:22;6.57;;;5.93;;
56343;SDS011;42245;42.058;24.700;2022-08-11T05:38:55;6.40;;;5.70;;
56343;SDS011;42245;42.058;24.700;2022-08-11T05:41:43;8.57;;;5.65;;
56343;SDS011;42245;42.058;24.700;2022-08-11T05:44:27;6.80;;;5.50;;
56343;SDS011;42245;42.058;24.700;2022-08-11T05:47:22;6.22;;;5.63;;
56343;SDS011;42245;42.058;24.700;2022-08-11T05:50:11;7.28;;;5.63;;
56343;SDS011;42245;42.058;24.700;2022-08-11T05:52:58;6.13;;;5.53;;
56343;SDS011;42245;42.058;24.700;2022-08-11T05:55:44;7.05;;;5.55;;
56343;SDS011;42245;42.058;24.700;2022-08-11T05:58:35;6.47;;;5.40;;
56343;SDS011;42245;42.058;24.700;2022-08-11T06:01:03;5.82;;;5.30;;
56343;SDS011;42245;42.058;24.700;2022-08-11T06:03:29;11.68;;;6.57;;
56343;SDS011;42245;42.058;24.700;2022-08-11T06:05:55;6.90;;;5.70;;
56343;SDS011;42245;42.058;24.700;2022-08-11T06:08:32;6.15;;;5.35;;
56343;SDS011;42245;42.058;24.700;2022-08-11T06:11:01;6.78;;;6.07;;
56343;SDS011;42245;42.058;24.700;2022-08-11T06:13:28;9.73;;;6.20;;
56343;SDS011;42245;42.058;24.700;2022-08-11T06:15:54;5.30;;;4.80;;
56343;SDS011;42245;42.058;24.700;2022-08-11T06:18:20;6.00;;;5.40;;
56343;SDS011;42245;42.058;24.700;2022-08-11T06:23:16;5.95;;;5.18;;
56343;SDS011;42245;42.058;24.700;2022-08-11T06:25:47;5.68;;;5.10;;
56343;SDS011;42245;42.058;24.700;2022-08-11T06:28:12;6.30;;;5.03;;
56343;SDS011;42245;42.058;24.700;2022-08-11T06:30:41;5.65;;;4.82;;
56343;SDS011;42245;42.058;24.700;2022-08-11T06:33:13;13.05;;;5.68;;
56343;SDS011;42245;42.058;24.700;2022-08-11T06:35:49;5.40;;;4.82;;
56343;SDS011;42245;42.058;24.700;2022-08-11T06:38:35;5.90;;;4.95;;
56343;SDS011;42245;42.058;24.700;2022-08-11T06:41:14;5.60;;;5.00;;
56343;SDS011;42245;42.058;24.700;2022-08-11T06:44:02;9.02;;;5.30;;
56343;SDS011;42245;42.058;24.700;2022-08-11T06:46:37;7.53;;;5.25;;
56343;SDS011;42245;42.058;24.700;2022-08-11T06:49:05;6.88;;;5.18;;
56343;SDS011;42245;42.058;24.700;2022-08-11T06:51:51;8.70;;;4.80;;
56343;SDS011;42245;42.058;24.700;2022-08-11T06:54:16;7.72;;;5.13;;
56343;SDS011;42245;42.058;24.700;2022-08-11T06:56:44;6.22;;;4.82;;
56343;SDS011;42245;42.058;24.700;2022-08-11T06:59:28;9.95;;;5.65;;
56343;SDS011;42245;42.058;24.700;2022-08-11T07:13:43;9.10;;;4.97;;
56343;SDS011;42245;42.058;24.700;2022-08-11T07:16:28;6.38;;;5.10;;
56343;SDS011;42245;42.058;24.700;2022-08-11T07:19:03;8.60;;;5.38;;
56343;SDS011;42245;42.058;24.700;2022-08-11T07:21:49;6.32;;;5.28;;
56343;SDS011;42245;42.058;24.700;2022-08-11T07:24:36;6.05;;;5.10;;
56343;SDS011;42245;42.058;24.700;2022-08-11T07:27:23;7.47;;;5.22;;
56343;SDS011;42245;42.058;24.700;2022-08-11T07:30:09;6.15;;;4.60;;
56343;SDS011;42245;42.058;24.700;2022-08-11T07:32:54;8.50;;;4.80;;
56343;SDS011;42245;42.058;24.700;2022-08-11T07:35:35;5.53;;;5.03;;
56343;SDS011;42245;42.058;24.700;2022-08-11T07:38:03;8.23;;;5.38;;
56343;SDS011;42245;42.058;24.700;2022-08-11T07:40:30;7.30;;;5.20;;
56343;SDS011;42245;42.058;24.700;2022-08-11T07:42:57;6.45;;;5.72;;
56343;SDS011;42245;42.058;24.700;2022-08-11T07:45:23;6.15;;;5.40;;
56343;SDS011;42245;42.058;24.700;2022-08-11T07:48:09;7.05;;;5.30;;
56343;SDS011;42245;42.058;24.700;2022-08-11T07:50:54;8.00;;;5.80;;
56343;SDS011;42245;42.058;24.700;2022-08-11T07:53:39;7.47;;;5.35;;
56343;SDS011;42245;42.058;24.700;2022-08-11T07:56:04;7.43;;;5.40;;
56343;SDS011;42245;42.058;24.700;2022-08-11T07:58:30;7.40;;;5.30;;
56343;SDS011;42245;42.058;24.700;2022-08-11T08:01:21;9.68;;;5.40;;
56343;SDS011;42245;42.058;24.700;2022-08-11T08:04:07;6.45;;;5.15;;
56343;SDS011;42245;42.058;24.700;2022-08-11T08:06:53;5.45;;;4.93;;
56343;SDS011;42245;42.058;24.700;2022-08-11T08:09:37;6.80;;;4.68;;
56343;SDS011;42245;42.058;24.700;2022-08-11T08:12:22;6.47;;;5.47;;
56343;SDS011;42245;42.058;24.700;2022-08-11T08:15:08;6.22;;;4.88;;
56343;SDS011;42245;42.058;24.700;2022-08-11T08:17:54;7.60;;;5.47;;
56343;SDS011;42245;42.058;24.700;2022-08-11T08:20:26;10.00;;;5.47;;
56343;SDS011;42245;42.058;24.700;2022-08-11T08:23:03;9.18;;;5.22;;
56343;SDS011;42245;42.058;24.700;2022-08-11T08:25:30;5.55;;;5.00;;
56343;SDS011;42245;42.058;24.700;2022-08-11T08:27:57;10.02;;;5.30;;
56343;SDS011;42245;42.058;24.700;2022-08-11T08:30:27;10.68;;;5.25;;
56343;SDS011;42245;42.058;24.700;2022-08-11T08:33:12;6.93;;;5.20;;
56343;SDS011;42245;42.058;24.700;2022-08-11T08:35:40;8.05;;;5.35;;
56343;SDS011;42245;42.058;24.700;2022-08-11T08:38:05;7.50;;;5.30;;
56343;SDS011;42245;42.058;24.700;2022-08-11T08:40:31;6.05;;;5.30;;
56343;SDS011;42245;42.058;24.700;2022-08-11T08:43:07;7.38;;;5.20;;
56343;SDS011;42245;42.058;24.700;2022-08-11T08:45:34;7.70;;;5.20;;
56343;SDS011;42245;42.058;24.700;2022-08-11T08:48:11;11.98;;;5.90;;
56343;SDS011;42245;42.058;24.700;2022-08-11T08:50:43;5.97;;;5.30;;
56343;SDS011;42245;42.058;24.700;2022-08-11T08:53:33;8.35;;;5.32;;
56343;SDS011;42245;42.058;24.700;2022-08-11T08:55:59;8.32;;;5.35;;
56343;SDS011;42245;42.058;24.700;2022-08-11T08:58:25;6.40;;;4.75;;
56343;SDS011;42245;42.058;24.700;2022-08-11T09:00:51;5.32;;;4.80;;
56343;SDS011;42245;42.058;24.700;2022-08-11T09:03:18;7.55;;;5.18;;
56343;SDS011;42245;42.058;24.700;2022-08-11T09:05:45;6.07;;;4.95;;
56343;SDS011;42245;42.058;24.700;2022-08-11T09:08:11;5.95;;;5.03;;
56343;SDS011;42245;42.058;24.700;2022-08-11T09:10:37;6.82;;;5.10;;
56343;SDS011;42245;42.058;24.700;2022-08-11T09:13:03;8.68;;;5.13;;
56343;SDS011;42245;42.058;24.700;2022-08-11T09:15:30;7.10;;;4.78;;
56343;SDS011;42245;42.058;24.700;2022-08-11T09:17:58;8.45;;;4.80;;
56343;SDS011;42245;42.058;24.700;2022-08-11T09:20:31;13.02;;;5.05;;
56343;SDS011;42245;42.058;24.700;2022-08-11T09:23:00;5.35;;;4.85;;
56343;SDS011;42245;42.058;24.700;2022-08-11T09:25:45;10.32;;;4.60;;
56343;SDS011;42245;42.058;24.700;2022-08-11T09:28:30;5.75;;;4.70;;
56343;SDS011;42245;42.058;24.700;2022-08-11T09:30:56;9.82;;;4.95;;
56343;SDS011;42245;42.058;24.700;2022-08-11T09:33:25;16.75;;;4.80;;
56343;SDS011;42245;42.058;24.700;2022-08-11T09:35:51;5.53;;;4.32;;
56343;SDS011;42245;42.058;24.700;2022-08-11T09:38:18;4.43;;;4.03;;
56343;SDS011;42245;42.058;24.700;2022-08-11T09:41:04;6.90;;;4.13;;
56343;SDS011;42245;42.058;24.700;2022-08-11T09:43:32;14.18;;;4.82;;
56343;SDS011;42245;42.058;24.700;2022-08-11T09:46:21;6.32;;;4.40;;
56343;SDS011;42245;42.058;24.700;2022-08-11T09:48:48;6.70;;;3.95;;
56343;SDS011;42245;42.058;24.700;2022-08-11T09:51:13;6.53;;;3.80;;
56343;SDS011;42245;42.058;24.700;2022-08-11T09:53:40;5.00;;;4.22;;
56343;SDS011;42245;42.058;24.700;2022-08-11T09:56:09;5.15;;;4.25;;
56343;SDS011;42245;42.058;24.700;2022-08-11T09:58:55;6.95;;;4.30;;
56343;SDS011;42245;42.058;24.700;2022-08-11T10:01:22;7.25;;;3.90;;
56343;SDS011;42245;42.058;24.700;2022-08-11T10:03:57;5.82;;;4.30;;
56343;SDS011;42245;42.058;24.700;2022-08-11T10:06:30;4.55;;;4.10;;
56343;SDS011;42245;42.058;24.700;2022-08-11T10:09:18;8.05;;;4.18;;
56343;SDS011;42245;42.058;24.700;2022-08-11T10:11:45;5.93;;;4.00;;
56343;SDS011;42245;42.058;24.700;2022-08-11T10:14:11;6.05;;;4.25;;
56343;SDS011;42245;42.058;24.700;2022-08-11T10:16:56;6.45;;;4.30;;
56343;SDS011;42245;42.058;24.700;2022-08-11T10:19:22;4.18;;;3.80;;
56343;SDS011;42245;42.058;24.700;2022-08-11T10:21:51;5.03;;;4.10;;
56343;SDS011;42245;42.058;24.700;2022-08-11T10:24:37;5.60;;;4.10;;
56343;SDS011;42245;42.058;24.700;2022-08-11T10:27:21;5.13;;;4.18;;
56343;SDS011;42245;42.058;24.700;2022-08-11T10:29:47;7.63;;;4.18;;
56343;SDS011;42245;42.058;24.700;2022-08-11T10:32:32;4.38;;;3.92;;
56343;SDS011;42245;42.058;24.700;2022-08-11T10:35:17;7.30;;;4.30;;
56343;SDS011;42245;42.058;24.700;2022-08-11T10:37:44;6.63;;;4.38;;
56343;SDS011;42245;42.058;24.700;2022-08-11T10:40:14;10.10;;;4.38;;
56343;SDS011;42245;42.058;24.700;2022-08-11T10:42:41;6.63;;;3.58;;
56343;SDS011;42245;42.058;24.700;2022-08-11T10:45:25;5.18;;;3.65;;
56343;SDS011;42245;42.058;24.700;2022-08-11T10:48:10;3.92;;;3.53;;
56343;SDS011;42245;42.058;24.700;2022-08-11T10:50:36;5.95;;;3.80;;
56343;SDS011;42245;42.058;24.700;2022-08-11T10:53:20;3.90;;;3.50;;
56343;SDS011;42245;42.058;24.700;2022-08-11T10:56:05;5.03;;;3.75;;
56343;SDS011;42245;42.058;24.700;2022-08-11T10:58:50;6.18;;;3.38;;
56343;SDS011;42245;42.058;24.700;2022-08-11T11:03:55;4.05;;;3.63;;
56343;SDS011;42245;42.058;24.700;2022-08-11T11:06:27;4.30;;;3.10;;
56343;SDS011;42245;42.058;24.700;2022-08-11T11:11:27;7.38;;;3.90;;
56343;SDS011;42245;42.058;24.700;2022-08-11T11:14:15;5.50;;;3.80;;
56343;SDS011;42245;42.058;24.700;2022-08-11T11:17:02;4.05;;;3.65;;
56343;SDS011;42245;42.058;24.700;2022-08-11T11:19:44;7.40;;;3.78;;
56343;SDS011;42245;42.058;24.700;2022-08-11T11:22:11;4.22;;;3.78;;
56343;SDS011;42245;42.058;24.700;2022-08-11T11:34:40;5.13;;;3.95;;
56343;SDS011;42245;42.058;24.700;2022-08-11T11:37:15;8.82;;;3.83;;
56343;SDS011;42245;42.058;24.700;2022-08-11T11:39:42;4.85;;;3.63;;
56343;SDS011;42245;42.058;24.700;2022-08-11T11:42:08;8.60;;;3.72;;
56343;SDS011;42245;42.058;24.700;2022-08-11T11:44:38;6.15;;;3.95;;
56343;SDS011;42245;42.058;24.700;2022-08-11T11:47:04;5.30;;;3.95;;
56343;SDS011;42245;42.058;24.700;2022-08-11T11:49:31;6.57;;;4.30;;
56343;SDS011;42245;42.058;24.700;2022-08-11T11:51:58;6.78;;;4.18;;
56343;SDS011;42245;42.058;24.700;2022-08-11T11:54:24;6.25;;;3.90;;
56343;SDS011;42245;42.058;24.700;2022-08-11T11:56:52;5.10;;;4.20;;
56343;SDS011;42245;42.058;24.700;2022-08-11T11:59:19;5.28;;;4.38;;
56343;SDS011;42245;42.058;24.700;2022-08-11T12:02:04;6.45;;;4.38;;
56343;SDS011;42245;42.058;24.700;2022-08-11T12:04:30;6.20;;;4.15;;
56343;SDS011;42245;42.058;24.700;2022-08-11T12:06:56;6.53;;;4.40;;
56343;SDS011;42245;42.058;24.700;2022-08-11T12:09:42;4.65;;;4.20;;
56343;SDS011;42245;42.058;24.700;2022-08-11T12:12:07;6.28;;;4.47;;
56343;SDS011;42245;42.058;24.700;2022-08-11T12:14:52;7.03;;;4.28;;
56343;SDS011;42245;42.058;24.700;2022-08-11T12:17:17;6.80;;;4.70;;
56343;SDS011;42245;42.058;24.700;2022-08-11T12:19:43;5.03;;;4.45;;
56343;SDS011;42245;42.058;24.700;2022-08-11T12:22:09;4.68;;;4.28;;
56343;SDS011;42245;42.058;24.700;2022-08-11T12:24:52;5.00;;;4.00;;
56343;SDS011;42245;42.058;24.700;2022-08-11T12:27:36;5.70;;;4.80;;
56343;SDS011;42245;42.058;24.700;2022-08-11T12:30:04;5.97;;;4.10;;
56343;SDS011;42245;42.058;24.700;2022-08-11T12:32:33;6.80;;;4.10;;
56343;SDS011;42245;42.058;24.700;2022-08-11T12:34:59;5.32;;;4.38;;
56343;SDS011;42245;42.058;24.700;2022-08-11T12:37:28;8.35;;;4.13;;
56343;SDS011;42245;42.058;24.700;2022-08-11T12:39:57;8.48;;;4.10;;
56343;SDS011;42245;42.058;24.700;2022-08-11T12:42:42;5.50;;;3.80;;
56343;SDS011;42245;42.058;24.700;2022-08-11T12:45:28;3.65;;;3.35;;
56343;SDS011;42245;42.058;24.700;2022-08-11T12:48:02;5.15;;;3.53;;
56343;SDS011;42245;42.058;24.700;2022-08-11T12:50:50;4.75;;;3.67;;
56343;SDS011;42245;42.058;24.700;2022-08-11T12:53:39;5.30;;;3.97;;
56343;SDS011;42245;42.058;24.700;2022-08-11T12:56:08;4.43;;;4.03;;
56343;SDS011;42245;42.058;24.700;2022-08-11T12:58:52;4.50;;;3.75;;
56343;SDS011;42245;42.058;24.700;2022-08-11T13:01:18;4.70;;;4.30;;
56343;SDS011;42245;42.058;24.700;2022-08-11T13:04:03;4.47;;;3.92;;
56343;SDS011;42245;42.058;24.700;2022-08-11T13:06:47;7.20;;;3.97;;
56343;SDS011;42245;42.058;24.700;2022-08-11T13:09:15;9.85;;;4.05;;
56343;SDS011;42245;42.058;24.700;2022-08-11T13:11:40;5.15;;;4.13;;
56343;SDS011;42245;42.058;24.700;2022-08-11T13:14:25;6.95;;;3.80;;
56343;SDS011;42245;42.058;24.700;2022-08-11T13:16:51;7.35;;;4.35;;
56343;SDS011;42245;42.058;24.700;2022-08-11T13:19:35;5.47;;;3.70;;
56343;SDS011;42245;42.058;24.700;2022-08-11T13:22:01;7.13;;;3.90;;
56343;SDS011;42245;42.058;24.700;2022-08-11T13:24:29;5.25;;;3.20;;
56343;SDS011;42245;42.058;24.700;2022-08-11T13:26:58;6.50;;;3.35;;
56343;SDS011;42245;42.058;24.700;2022-08-11T13:29:24;3.10;;;2.78;;
56343;SDS011;42245;42.058;24.700;2022-08-11T13:31:51;4.75;;;3.30;;
56343;SDS011;42245;42.058;24.700;2022-08-11T13:34:19;3.55;;;3.25;;
56343;SDS011;42245;42.058;24.700;2022-08-11T13:36:46;4.00;;;3.10;;
56343;SDS011;42245;42.058;24.700;2022-08-11T13:39:14;3.55;;;3.25;;
56343;SDS011;42245;42.058;24.700;2022-08-11T13:41:39;5.22;;;3.30;;
56343;SDS011;42245;42.058;24.700;2022-08-11T13:44:09;7.68;;;3.40;;
56343;SDS011;42245;42.058;24.700;2022-08-11T13:46:38;3.35;;;3.03;;
56343;SDS011;42245;42.058;24.700;2022-08-11T13:49:04;5.03;;;3.30;;
56343;SDS011;42245;42.058;24.700;2022-08-11T13:51:33;5.53;;;3.05;;
56343;SDS011;42245;42.058;24.700;2022-08-11T13:54:00;6.90;;;3.20;;
56343;SDS011;42245;42.058;24.700;2022-08-11T13:56:27;6.90;;;3.10;;
56343;SDS011;42245;42.058;24.700;2022-08-11T13:58:54;4.53;;;3.45;;
56343;SDS011;42245;42.058;24.700;2022-08-11T14:01:20;5.25;;;3.60;;
56343;SDS011;42245;42.058;24.700;2022-08-11T14:03:46;3.90;;;3.47;;
56343;SDS011;42245;42.058;24.700;2022-08-11T14:06:14;4.75;;;3.30;;
56343;SDS011;42245;42.058;24.700;2022-08-11T14:08:42;4.30;;;3.40;;
56343;SDS011;42245;42.058;24.700;2022-08-11T14:11:07;3.90;;;3.60;;
56343;SDS011;42245;42.058;24.700;2022-08-11T14:13:52;3.75;;;3.40;;
56343;SDS011;42245;42.058;24.700;2022-08-11T14:16:19;5.53;;;3.40;;
56343;SDS011;42245;42.058;24.700;2022-08-11T14:18:51;7.78;;;3.63;;
56343;SDS011;42245;42.058;24.700;2022-08-11T14:21:18;7.47;;;3.75;;
56343;SDS011;42245;42.058;24.700;2022-08-11T14:24:04;6.57;;;3.80;;
56343;SDS011;42245;42.058;24.700;2022-08-11T14:26:30;4.35;;;3.88;;
56343;SDS011;42245;42.058;24.700;2022-08-11T14:29:10;4.65;;;3.78;;
56343;SDS011;42245;42.058;24.700;2022-08-11T14:31:45;5.80;;;4.20;;
56343;SDS011;42245;42.058;24.700;2022-08-11T14:34:22;7.03;;;4.10;;
56343;SDS011;42245;42.058;24.700;2022-08-11T14:36:50;4.20;;;3.80;;
56343;SDS011;42245;42.058;24.700;2022-08-11T14:39:18;5.15;;;3.45;;
56343;SDS011;42245;42.058;24.700;2022-08-11T14:41:58;6.97;;;4.00;;
56343;SDS011;42245;42.058;24.700;2022-08-11T14:44:46;5.20;;;3.63;;
56343;SDS011;42245;42.058;24.700;2022-08-11T14:47:32;7.53;;;3.88;;
56343;SDS011;42245;42.058;24.700;2022-08-11T14:49:59;4.35;;;3.72;;
56343;SDS011;42245;42.058;24.700;2022-08-11T14:52:27;4.28;;;3.60;;
56343;SDS011;42245;42.058;24.700;2022-08-11T14:54:52;5.28;;;3.63;;
56343;SDS011;42245;42.058;24.700;2022-08-11T14:57:37;4.65;;;3.40;;
56343;SDS011;42245;42.058;24.700;2022-08-11T15:00:05;7.47;;;3.72;;
56343;SDS011;42245;42.058;24.700;2022-08-11T15:02:33;6.22;;;3.47;;
56343;SDS011;42245;42.058;24.700;2022-08-11T15:05:19;3.90;;;2.92;;
56343;SDS011;42245;42.058;24.700;2022-08-11T15:07:45;3.65;;;2.97;;
56343;SDS011;42245;42.058;24.700;2022-08-11T15:10:11;3.53;;;3.20;;
56343;SDS011;42245;42.058;24.700;2022-08-11T15:12:38;3.90;;;2.78;;
56343;SDS011;42245;42.058;24.700;2022-08-11T15:15:06;4.43;;;2.60;;
56343;SDS011;42245;42.058;24.700;2022-08-11T15:17:52;2.70;;;2.50;;
56343;SDS011;42245;42.058;24.700;2022-08-11T15:20:18;3.53;;;2.88;;
56343;SDS011;42245;42.058;24.700;2022-08-11T15:23:03;3.22;;;2.67;;
56343;SDS011;42245;42.058;24.700;2022-08-11T15:25:55;5.82;;;3.30;;
56343;SDS011;42245;42.058;24.700;2022-08-11T15:28:22;4.32;;;3.50;;
56343;SDS011;42245;42.058;24.700;2022-08-11T15:31:07;3.08;;;2.78;;
56343;SDS011;42245;42.058;24.700;2022-08-11T15:33:52;5.22;;;2.90;;
56343;SDS011;42245;42.058;24.700;2022-08-11T15:36:38;2.55;;;2.15;;
56343;SDS011;42245;42.058;24.700;2022-08-11T15:39:23;2.75;;;2.45;;
56343;SDS011;42245;42.058;24.700;2022-08-11T15:41:56;4.40;;;2.25;;
56343;SDS011;42245;42.058;24.700;2022-08-11T15:44:44;4.00;;;2.45;;
56343;SDS011;42245;42.058;24.700;2022-08-11T15:47:34;2.65;;;2.45;;
56343;SDS011;42245;42.058;24.700;2022-08-11T15:50:05;4.80;;;2.50;;
56343;SDS011;42245;42.058;24.700;2022-08-11T15:52:34;3.42;;;2.20;;
56343;SDS011;42245;42.058;24.700;2022-08-11T15:55:14;4.78;;;2.60;;
56343;SDS011;42245;42.058;24.700;2022-08-11T15:57:40;5.20;;;2.40;;
56343;SDS011;42245;42.058;24.700;2022-08-11T16:00:24;5.32;;;2.58;;
56343;SDS011;42245;42.058;24.700;2022-08-11T16:03:08;4.82;;;2.38;;
56343;SDS011;42245;42.058;24.700;2022-08-11T16:05:52;4.63;;;2.70;;
56343;SDS011;42245;42.058;24.700;2022-08-11T16:08:26;3.10;;;2.50;;
56343;SDS011;42245;42.058;24.700;2022-08-11T16:11:12;8.45;;;3.80;;
56343;SDS011;42245;42.058;24.700;2022-08-11T16:13:37;7.07;;;4.03;;
56343;SDS011;42245;42.058;24.700;2022-08-11T16:16:03;6.07;;;4.15;;
56343;SDS011;42245;42.058;24.700;2022-08-11T16:18:47;9.95;;;4.43;;
56343;SDS011;42245;42.058;24.700;2022-08-11T16:21:17;9.07;;;4.80;;
56343;SDS011;42245;42.058;24.700;2022-08-11T16:23:45;10.85;;;4.80;;
56343;SDS011;42245;42.058;24.700;2022-08-11T16:26:12;6.63;;;4.88;;
56343;SDS011;42245;42.058;24.700;2022-08-11T16:28:40;8.88;;;5.03;;
56343;SDS011;42245;42.058;24.700;2022-08-11T16:31:08;14.80;;;6.25;;
56343;SDS011;42245;42.058;24.700;2022-08-11T16:33:36;12.00;;;6.38;;
56343;SDS011;42245;42.058;24.700;2022-08-11T16:36:05;13.40;;;5.80;;
56343;SDS011;42245;42.058;24.700;2022-08-11T16:38:54;10.13;;;5.60;;
56343;SDS011;42245;42.058;24.700;2022-08-11T16:41:20;10.98;;;5.90;;
56343;SDS011;42245;42.058;24.700;2022-08-11T16:44:06;10.02;;;5.60;;
56343;SDS011;42245;42.058;24.700;2022-08-11T16:46:52;15.02;;;6.47;;
56343;SDS011;42245;42.058;24.700;2022-08-11T16:51:53;10.23;;;6.38;;
56343;SDS011;42245;42.058;24.700;2022-08-11T16:54:18;7.55;;;6.07;;
56343;SDS011;42245;42.058;24.700;2022-08-11T16:56:45;8.45;;;6.07;;
56343;SDS011;42245;42.058;24.700;2022-08-11T16:59:14;7.40;;;5.93;;
56343;SDS011;42245;42.058;24.700;2022-08-11T17:04:30;7.93;;;5.78;;
56343;SDS011;42245;42.058;24.700;2022-08-11T17:07:34;6.43;;;5.40;;
56343;SDS011;42245;42.058;24.700;2022-08-11T17:10:24;8.18;;;5.78;;
56343;SDS011;42245;42.058;24.700;2022-08-11T17:13:15;7.07;;;5.28;;
56343;SDS011;42245;42.058;24.700;2022-08-11T17:15:49;7.03;;;5.88;;
56343;SDS011;42245;42.058;24.700;2022-08-11T17:18:32;8.00;;;5.57;;
56343;SDS011;42245;42.058;24.700;2022-08-11T17:21:12;6.55;;;4.70;;
56343;SDS011;42245;42.058;24.700;2022-08-11T17:23:40;8.35;;;4.85;;
56343;SDS011;42245;42.058;24.700;2022-08-11T17:26:12;5.55;;;4.75;;
56343;SDS011;42245;42.058;24.700;2022-08-11T17:28:39;6.13;;;4.13;;
56343;SDS011;42245;42.058;24.700;2022-08-11T17:31:06;5.68;;;4.18;;
56343;SDS011;42245;42.058;24.700;2022-08-11T17:33:51;5.28;;;4.13;;
56343;SDS011;42245;42.058;24.700;2022-08-11T17:36:35;5.93;;;4.50;;
56343;SDS011;42245;42.058;24.700;2022-08-11T17:39:01;6.70;;;4.60;;
56343;SDS011;42245;42.058;24.700;2022-08-11T17:41:27;4.70;;;4.13;;
56343;SDS011;42245;42.058;24.700;2022-08-11T17:44:11;10.23;;;5.00;;
56343;SDS011;42245;42.058;24.700;2022-08-11T17:46:56;5.20;;;4.28;;
56343;SDS011;42245;42.058;24.700;2022-08-11T17:49:40;9.25;;;4.85;;
56343;SDS011;42245;42.058;24.700;2022-08-11T17:52:06;6.45;;;4.30;;
56343;SDS011;42245;42.058;24.700;2022-08-11T17:54:51;7.72;;;4.22;;
56343;SDS011;42245;42.058;24.700;2022-08-11T17:57:36;6.45;;;4.22;;
56343;SDS011;42245;42.058;24.700;2022-08-11T18:00:22;5.55;;;4.22;;
56343;SDS011;42245;42.058;24.700;2022-08-11T18:02:49;4.70;;;4.20;;
56343;SDS011;42245;42.058;24.700;2022-08-11T18:05:34;5.43;;;4.10;;
56343;SDS011;42245;42.058;24.700;2022-08-11T18:08:02;4.47;;;4.05;;
56343;SDS011;42245;42.058;24.700;2022-08-11T18:10:48;4.60;;;4.10;;
56343;SDS011;42245;42.058;24.700;2022-08-11T18:13:33;5.53;;;4.60;;
56343;SDS011;42245;42.058;24.700;2022-08-11T18:16:19;6.05;;;4.28;;
56343;SDS011;42245;42.058;24.700;2022-08-11T18:19:05;5.05;;;4.22;;
56343;SDS011;42245;42.058;24.700;2022-08-11T18:21:48;5.75;;;4.18;;
56343;SDS011;42245;42.058;24.700;2022-08-11T18:24:36;4.47;;;4.07;;
56343;SDS011;42245;42.058;24.700;2022-08-11T18:27:21;3.80;;;3.50;;
56343;SDS011;42245;42.058;24.700;2022-08-11T18:30:09;4.10;;;3.70;;
56343;SDS011;42245;42.058;24.700;2022-08-11T18:32:53;4.68;;;4.28;;
56343;SDS011;42245;42.058;24.700;2022-08-11T18:35:42;5.07;;;4.00;;
56343;SDS011;42245;42.058;24.700;2022-08-11T18:38:27;6.07;;;3.97;;
56343;SDS011;42245;42.058;24.700;2022-08-11T18:41:11;6.90;;;3.70;;
56343;SDS011;42245;42.058;24.700;2022-08-11T18:43:57;5.18;;;4.20;;
56343;SDS011;42245;42.058;24.700;2022-08-11T18:46:43;10.65;;;6.38;;
56343;SDS011;42245;42.058;24.700;2022-08-11T18:49:28;4.40;;;3.72;;
56343;SDS011;42245;42.058;24.700;2022-08-11T18:52:17;6.70;;;3.78;;
56343;SDS011;42245;42.058;24.700;2022-08-11T18:55:02;6.38;;;3.88;;
56343;SDS011;42245;42.058;24.700;2022-08-11T18:57:47;4.97;;;3.58;;
56343;SDS011;42245;42.058;24.700;2022-08-11T19:00:32;4.00;;;3.60;;
56343;SDS011;42245;42.058;24.700;2022-08-11T19:03:19;7.05;;;3.92;;
56343;SDS011;42245;42.058;24.700;2022-08-11T19:06:04;4.57;;;3.92;;
56343;SDS011;42245;42.058;24.700;2022-08-11T19:08:54;5.72;;;3.80;;
56343;SDS011;42245;42.058;24.700;2022-08-11T19:11:43;3.47;;;3.17;;
56343;SDS011;42245;42.058;24.700;2022-08-11T19:14:28;4.53;;;3.20;;